Time;durP1;ratioP1;P1;durP2;ratioP2;P2;SDS_P1;SDS_P2;PMS_P1;PMS_P2;Temp;Humidity;BMP_temperature;BMP_pressure;BME280_temperature;BME280_humidity;BME280_pressure;Samples;Min_cycle;Max_cycle;Signal;HPM_P1;HPM_P2
2023/12/18 00:01:17;;;;;;;8.73;4.22;;;8.70;72.90;;;;;;5047864;28;20056;-57
2023/12/18 00:03:43;;;;;;;;;;;8.60;72.90;;;;;;5044247;28;20040;-58
2023/12/18 00:06:10;;;;;;;3.75;3.15;;;8.70;72.70;;;;;;5042277;28;19925;-58
2023/12/18 00:08:38;;;;;;;6.70;3.33;;;8.60;72.60;;;;;;5050452;28;20052;-57
2023/12/18 00:11:07;;;;;;;5.25;3.38;;;8.60;72.50;;;;;;5049959;28;20041;-57
2023/12/18 00:13:51;;;;;;;4.93;3.25;;;8.60;72.60;;;;;;5048510;28;20051;-57
2023/12/18 00:16:20;;;;;;;8.70;3.67;;;8.50;72.50;;;;;;5042231;28;20048;-58
2023/12/18 00:18:47;;;;;;;5.28;3.45;;;8.50;72.50;;;;;;5049797;28;20491;-57
2023/12/18 00:21:15;;;;;;;5.60;3.42;;;8.50;72.40;;;;;;5050339;28;20422;-58
2023/12/18 00:23:44;;;;;;;5.97;3.10;;;8.50;72.40;;;;;;5040533;28;20507;-55
2023/12/18 00:26:11;;;;;;;5.35;3.55;;;8.40;72.30;;;;;;5046075;28;20128;-58
2023/12/18 00:28:37;;;;;;;7.95;3.50;;;8.40;72.40;;;;;;5049214;28;20079;-58
2023/12/18 00:31:09;;;;;;;6.88;3.40;;;8.40;72.40;;;;;;5049604;28;20044;-58
2023/12/18 00:33:42;;;;;;;5.72;3.55;;;8.40;72.40;;;;;;5044677;28;20181;-57
2023/12/18 00:36:09;;;;;;;5.68;3.67;;;8.40;72.30;;;;;;5041765;28;20048;-57
2023/12/18 00:38:37;;;;;;;5.03;4.00;;;8.40;72.30;;;;;;5049777;28;20055;-58
2023/12/18 00:41:03;;;;;;;5.85;3.45;;;8.40;72.20;;;;;;5046989;28;20502;-58
2023/12/18 00:43:30;;;;;;;7.53;3.85;;;8.40;72.10;;;;;;5044843;28;20048;-58
2023/12/18 00:45:57;;;;;;;6.60;3.42;;;8.40;72.10;;;;;;5049605;28;20499;-58
2023/12/18 00:48:24;;;;;;;7.10;3.58;;;8.30;72.00;;;;;;5049780;28;20041;-58
2023/12/18 00:50:58;;;;;;;5.60;3.80;;;8.30;71.90;;;;;;5043576;28;20040;-56
2023/12/18 00:53:27;;;;;;;5.55;3.63;;;8.30;71.60;;;;;;5047331;28;20175;-57
2023/12/18 00:55:56;;;;;;;5.28;3.72;;;8.30;71.80;;;;;;5044568;28;20140;-57
2023/12/18 00:58:23;;;;;;;5.25;3.40;;;8.30;71.70;;;;;;5041507;28;20042;-58
2023/12/18 01:00:52;;;;;;;8.20;3.60;;;8.30;71.70;;;;;;5044486;28;20048;-57
2023/12/18 01:03:19;;;;;;;6.97;4.28;;;8.30;71.60;;;;;;5049932;28;20044;-56
2023/12/18 01:05:46;;;;;;;4.70;4.00;;;8.30;71.60;;;;;;5049078;28;20126;-57
2023/12/18 01:08:15;;;;;;;4.30;3.30;;;8.30;71.50;;;;;;5047032;28;20095;-56
2023/12/18 01:10:41;;;;;;;7.20;4.07;;;8.30;71.50;;;;;;5029010;28;20103;-58
2023/12/18 01:13:08;;;;;;;4.20;3.65;;;8.20;72.00;;;;;;5049891;28;20060;-57
2023/12/18 01:15:34;;;;;;;8.02;3.67;;;8.20;72.00;;;;;;5044233;28;20041;-57
2023/12/18 01:18:04;;;;;;;5.47;3.58;;;8.20;71.30;;;;;;5044273;28;20043;-58
2023/12/18 01:20:36;;;;;;;7.65;3.88;;;8.20;71.30;;;;;;5046966;28;20084;-58
2023/12/18 01:23:05;;;;;;;6.88;3.70;;;8.10;71.20;;;;;;5048298;28;20523;-57
2023/12/18 01:25:32;;;;;;;6.85;3.45;;;8.10;71.10;;;;;;5042199;28;20065;-58
2023/12/18 01:27:59;;;;;;;6.88;3.92;;;8.10;71.00;;;;;;5049606;28;20552;-58
2023/12/18 01:30:26;;;;;;;8.95;3.70;;;8.10;71.10;;;;;;5049140;28;20076;-58
2023/12/18 01:32:53;;;;;;;4.80;3.67;;;8.10;71.10;;;;;;5040282;28;20116;-58
2023/12/18 01:35:20;;;;;;;7.80;3.90;;;8.10;71.10;;;;;;5047002;28;20044;-58
2023/12/18 01:37:52;;;;;;;9.02;4.05;;;8.10;71.00;;;;;;5049013;28;20056;-57
2023/12/18 01:40:19;;;;;;;7.22;3.03;;;8.00;70.90;;;;;;5050181;28;20565;-58
2023/12/18 01:42:48;;;;;;;6.50;3.65;;;8.00;70.90;;;;;;5047085;28;20048;-58
2023/12/18 01:45:15;;;;;;;4.85;3.10;;;8.00;70.80;;;;;;5052874;28;20312;-57
2023/12/18 01:47:42;;;;;;;7.07;3.78;;;8.00;70.80;;;;;;5052458;28;20072;-57
2023/12/18 01:50:12;;;;;;;6.18;3.42;;;7.90;70.80;;;;;;5050288;28;20106;-58
2023/12/18 01:52:40;;;;;;;6.25;3.47;;;7.90;70.80;;;;;;5052858;28;20045;-58
2023/12/18 01:55:11;;;;;;;5.03;3.47;;;7.90;70.80;;;;;;5049113;28;20052;-58
2023/12/18 01:57:40;;;;;;;5.35;3.70;;;7.90;70.80;;;;;;5048313;28;20472;-58
2023/12/18 02:00:09;;;;;;;5.65;3.17;;;7.90;70.80;;;;;;5049684;28;20500;-57
2023/12/18 02:02:41;;;;;;;6.72;4.03;;;7.90;70.90;;;;;;5052802;28;20091;-57
2023/12/18 02:05:07;;;;;;;5.40;3.92;;;7.90;71.50;;;;;;5052591;28;20067;-58
2023/12/18 02:07:35;;;;;;;7.32;3.40;;;7.80;70.80;;;;;;5045760;28;20045;-58
2023/12/18 02:10:03;;;;;;;6.15;3.38;;;7.80;70.80;;;;;;5052279;28;20560;-57
2023/12/18 02:12:29;;;;;;;8.15;3.80;;;7.80;70.80;;;;;;5052691;28;20048;-58
2023/12/18 02:14:59;;;;;;;5.88;3.75;;;7.80;70.90;;;;;;5046670;28;20049;-58
2023/12/18 02:17:26;;;;;;;6.40;4.05;;;7.80;70.90;;;;;;5047483;28;20045;-57
2023/12/18 02:20:04;;;;;;;8.45;4.15;;;7.80;70.80;;;;;;5051609;28;20518;-56
2023/12/18 02:22:43;;;;;;;5.03;3.75;;;7.70;70.50;;;;;;5034908;28;20071;-57
2023/12/18 02:25:10;;;;;;;6.63;4.28;;;7.70;70.70;;;;;;5047567;28;20053;-58
2023/12/18 02:27:38;;;;;;;6.43;3.95;;;7.70;70.70;;;;;;5052182;28;20045;-57
2023/12/18 02:30:06;;;;;;;5.20;3.75;;;7.70;70.70;;;;;;5052203;28;20493;-58
2023/12/18 02:32:35;;;;;;;6.10;3.67;;;7.70;70.70;;;;;;5049937;28;20033;-57
2023/12/18 02:35:02;;;;;;;5.97;4.20;;;7.60;70.70;;;;;;5050288;28;20647;-58
2023/12/18 02:37:29;;;;;;;8.70;3.92;;;7.60;70.70;;;;;;5051812;28;20044;-58
2023/12/18 02:39:56;;;;;;;4.65;3.40;;;7.60;70.80;;;;;;5051880;28;20068;-58
2023/12/18 02:42:25;;;;;;;5.25;4.25;;;7.60;70.90;;;;;;5048098;28;20045;-57
2023/12/18 02:45:00;;;;;;;9.57;4.40;;;7.60;70.90;;;;;;5050479;28;20462;-57
2023/12/18 02:47:27;;;;;;;4.70;3.50;;;7.60;71.00;;;;;;5034156;28;20132;-58
2023/12/18 02:49:56;;;;;;;5.70;4.10;;;7.60;71.10;;;;;;5051636;28;20634;-58
2023/12/18 02:52:23;;;;;;;9.15;4.05;;;7.60;71.20;;;;;;5045363;28;20523;-58
2023/12/18 02:54:50;;;;;;;9.30;3.92;;;7.60;71.20;;;;;;5045962;28;20069;-58
2023/12/18 02:57:16;;;;;;;3.92;3.53;;;7.60;71.20;;;;;;5048514;28;20098;-58
2023/12/18 02:59:47;;;;;;;7.78;4.38;;;7.60;71.20;;;;;;5048414;28;20531;-57
2023/12/18 03:02:13;;;;;;;7.00;4.40;;;7.60;71.20;;;;;;5051673;28;20415;-57
2023/12/18 03:04:41;;;;;;;5.63;3.92;;;7.60;71.20;;;;;;5051519;28;20562;-58
2023/12/18 03:07:11;;;;;;;6.95;3.75;;;7.60;71.80;;;;;;5046662;28;20037;-58
2023/12/18 03:09:38;;;;;;;5.07;3.20;;;7.60;71.00;;;;;;5046116;28;20075;-58
2023/12/18 03:12:07;;;;;;;6.10;3.90;;;7.60;71.00;;;;;;5050944;28;20407;-58
2023/12/18 03:14:36;;;;;;;5.63;3.85;;;7.60;70.90;;;;;;5047476;28;20045;-57
2023/12/18 03:17:03;;;;;;;5.43;4.57;;;7.50;71.00;;;;;;5042165;28;20072;-58
2023/12/18 03:19:30;;;;;;;4.00;3.38;;;7.50;71.10;;;;;;5047804;28;20463;-58
2023/12/18 03:21:58;;;;;;;6.15;4.38;;;7.50;71.20;;;;;;5050439;28;20045;-58
2023/12/18 03:24:25;;;;;;;5.13;3.97;;;7.50;71.30;;;;;;5046417;28;20049;-58
2023/12/18 03:26:54;;;;;;;6.28;3.80;;;7.50;71.40;;;;;;5049960;28;20053;-55
2023/12/18 03:29:23;;;;;;;6.80;4.15;;;7.50;71.40;;;;;;5051232;28;20044;-58
2023/12/18 03:31:50;;;;;;;7.07;4.03;;;7.50;71.40;;;;;;5050590;28;20120;-58
2023/12/18 03:34:16;;;;;;;5.28;3.80;;;7.50;71.40;;;;;;5047600;28;20037;-58
2023/12/18 03:36:43;;;;;;;6.82;3.97;;;7.50;71.20;;;;;;5050014;28;20052;-59
2023/12/18 03:39:17;;;;;;;6.60;3.63;;;7.50;71.00;;;;;;5051069;28;20041;-58
2023/12/18 03:41:44;;;;;;;5.55;3.80;;;7.50;70.90;;;;;;5048366;28;20048;-57
2023/12/18 03:44:14;;;;;;;7.25;4.18;;;7.50;70.90;;;;;;5047341;28;20051;-56
2023/12/18 03:46:46;;;;;;;4.78;3.42;;;7.40;70.80;;;;;;5050417;28;20072;-57
2023/12/18 03:49:15;;;;;;;8.00;4.43;;;7.40;70.80;;;;;;5049699;28;20149;-57
2023/12/18 03:51:42;;;;;;;4.20;3.72;;;7.40;70.90;;;;;;5045306;28;20041;-58
2023/12/18 03:54:13;;;;;;;5.03;4.13;;;7.40;71.00;;;;;;5045404;28;20495;-58
2023/12/18 03:56:45;;;;;;;4.38;3.92;;;7.40;71.10;;;;;;5049414;28;20040;-57
2023/12/18 03:59:11;;;;;;;5.40;3.75;;;7.30;71.00;;;;;;5045676;28;20055;-58
2023/12/18 04:01:38;;;;;;;6.53;4.25;;;7.30;71.10;;;;;;5049869;28;20055;-58
2023/12/18 04:04:06;;;;;;;5.28;3.97;;;7.30;71.20;;;;;;5049527;28;20103;-58
2023/12/18 04:06:36;;;;;;;7.82;4.13;;;7.20;71.10;;;;;;5045612;28;20052;-56
2023/12/18 04:09:03;;;;;;;4.03;3.63;;;7.20;71.10;;;;;;5048771;28;20550;-57
2023/12/18 04:11:30;;;;;;;6.95;4.18;;;7.20;71.10;;;;;;5050154;28;20037;-58
2023/12/18 04:13:58;;;;;;;10.25;4.68;;;7.20;71.10;;;;;;5045455;28;20048;-59
2023/12/18 04:16:26;;;;;;;6.35;3.80;;;7.10;70.90;;;;;;5046118;28;20763;-57
2023/12/18 04:18:55;;;;;;;4.75;3.53;;;7.10;70.90;;;;;;5049885;28;20068;-58
2023/12/18 04:21:23;;;;;;;6.25;4.40;;;7.10;71.00;;;;;;5029925;28;20049;-58
2023/12/18 04:23:49;;;;;;;5.78;3.72;;;7.10;71.10;;;;;;5045633;28;20528;-58
2023/12/18 04:26:17;;;;;;;7.25;4.88;;;7.10;71.10;;;;;;5047802;28;20053;-57
2023/12/18 04:28:44;;;;;;;6.93;5.13;;;7.10;71.20;;;;;;5049755;28;20128;-58
2023/12/18 04:31:11;;;;;;;5.38;4.45;;;7.00;71.10;;;;;;5046558;28;20044;-57
2023/12/18 04:33:39;;;;;;;7.32;4.70;;;7.00;71.10;;;;;;5045301;28;20051;-57
2023/12/18 04:36:06;;;;;;;5.20;4.28;;;7.00;71.30;;;;;;5049504;28;20103;-57
2023/12/18 04:38:34;;;;;;;5.53;4.43;;;7.00;71.50;;;;;;5050079;28;20120;-58
2023/12/18 04:41:03;;;;;;;5.93;4.10;;;7.00;71.70;;;;;;5049355;28;20432;-58
2023/12/18 04:43:35;;;;;;;7.78;4.95;;;7.00;71.90;;;;;;5042834;28;20048;-57
2023/12/18 04:46:02;;;;;;;10.68;7.38;;;7.00;72.20;;;;;;5049414;28;20482;-58
2023/12/18 04:48:29;;;;;;;10.00;7.03;;;7.10;72.50;;;;;;5050117;28;20052;-58
2023/12/18 04:50:55;;;;;;;12.43;8.35;;;7.10;73.00;;;;;;5049014;28;20051;-57
2023/12/18 04:53:26;;;;;;;13.98;9.00;;;7.10;73.00;;;;;;5043433;28;20037;-56
2023/12/18 04:55:53;;;;;;;14.23;9.90;;;7.20;73.10;;;;;;5047006;28;20068;-57
2023/12/18 04:58:20;;;;;;;13.82;9.75;;;7.20;73.30;;;;;;5045646;28;20112;-58
2023/12/18 05:00:47;;;;;;;17.33;11.02;;;7.30;73.30;;;;;;5048417;28;20116;-57
2023/12/18 05:03:14;;;;;;;17.38;11.57;;;7.40;73.30;;;;;;5047111;28;20079;-56
2023/12/18 05:05:40;;;;;;;17.23;12.13;;;7.40;73.30;;;;;;5049493;28;20115;-58
2023/12/18 05:08:07;;;;;;;15.48;12.02;;;7.50;73.30;;;;;;5045195;28;20037;-58
2023/12/18 05:10:34;;;;;;;17.77;12.60;;;7.60;73.30;;;;;;5044593;28;20074;-58
2023/12/18 05:13:00;;;;;;;17.63;12.32;;;7.60;73.20;;;;;;5049372;28;20441;-58
2023/12/18 05:15:27;;;;;;;19.30;14.30;;;7.70;73.20;;;;;;5049790;28;20076;-58
2023/12/18 05:17:56;;;;;;;17.30;13.60;;;7.70;73.10;;;;;;5051239;28;20055;-58
2023/12/18 05:20:25;;;;;;;19.92;14.27;;;7.80;73.00;;;;;;5053371;28;20492;-56
2023/12/18 05:22:51;;;;;;;18.58;14.05;;;7.80;73.00;;;;;;5053108;28;20087;-58
2023/12/18 05:25:23;;;;;;;18.67;13.10;;;7.90;73.00;;;;;;5046694;28;20076;-58
2023/12/18 05:27:50;;;;;;;15.50;12.02;;;7.90;73.00;;;;;;5053144;28;20064;-58
2023/12/18 05:30:17;;;;;;;19.20;12.00;;;7.90;72.90;;;;;;5051008;28;20112;-58
2023/12/18 05:32:44;;;;;;;16.77;12.77;;;8.00;72.90;;;;;;5050932;28;20036;-58
2023/12/18 05:35:11;;;;;;;16.55;12.50;;;8.00;72.80;;;;;;5052695;28;20037;-58
2023/12/18 05:37:38;;;;;;;18.02;12.90;;;8.00;72.80;;;;;;5053061;28;20045;-60
2023/12/18 05:40:05;;;;;;;19.67;12.23;;;8.00;72.70;;;;;;5049754;28;20041;-59
2023/12/18 05:42:36;;;;;;;17.25;12.77;;;8.00;72.60;;;;;;5047254;28;20052;-58
2023/12/18 05:45:03;;;;;;;18.92;13.52;;;8.00;72.50;;;;;;5052759;28;20037;-56
2023/12/18 05:47:30;;;;;;;18.27;14.00;;;8.10;72.50;;;;;;5053096;28;20124;-58
2023/12/18 05:50:02;;;;;;;17.58;14.18;;;8.10;72.50;;;;;;5048817;28;20044;-57
2023/12/18 05:52:30;;;;;;;25.75;14.95;;;8.10;72.50;;;;;;5052986;28;20554;-57
2023/12/18 05:54:57;;;;;;;17.83;13.43;;;8.10;72.50;;;;;;5034024;28;20040;-57
2023/12/18 05:57:24;;;;;;;18.70;13.38;;;8.10;72.60;;;;;;5050019;28;20068;-56
2023/12/18 05:59:51;;;;;;;19.70;13.60;;;8.10;72.60;;;;;;5047037;28;20108;-56
2023/12/18 06:02:18;;;;;;;19.75;12.80;;;8.10;72.60;;;;;;5052623;28;20041;-58
2023/12/18 06:04:45;;;;;;;20.83;13.93;;;8.10;72.60;;;;;;5052709;28;20049;-58
2023/12/18 06:07:16;;;;;;;19.65;13.20;;;8.10;72.60;;;;;;5048497;28;20091;-59
2023/12/18 06:09:42;;;;;;;20.25;12.82;;;8.10;72.60;;;;;;5052914;28;20047;-58
2023/12/18 06:12:11;;;;;;;20.10;12.52;;;8.10;72.70;;;;;;5034484;28;20507;-59
2023/12/18 06:14:37;;;;;;;18.75;11.68;;;8.10;72.60;;;;;;5052992;28;20116;-57
2023/12/18 06:17:09;;;;;;;18.45;12.70;;;8.10;72.70;;;;;;5049390;28;20041;-58
2023/12/18 06:19:37;;;;;;;19.25;12.43;;;8.10;72.70;;;;;;5050645;28;20032;-59
2023/12/18 06:22:04;;;;;;;16.55;11.32;;;8.10;72.90;;;;;;5052083;28;20116;-58
2023/12/18 06:24:31;;;;;;;18.25;12.50;;;8.10;72.90;;;;;;5045025;28;20443;-57
2023/12/18 06:26:58;;;;;;;19.15;11.95;;;8.10;72.90;;;;;;5049903;28;20041;-57
2023/12/18 06:29:28;;;;;;;17.58;12.23;;;8.10;73.60;;;;;;5052064;28;20045;-59
2023/12/18 06:31:55;;;;;;;19.45;12.98;;;8.10;73.00;;;;;;5051945;28;20048;-58
2023/12/18 06:34:21;;;;;;;22.13;13.05;;;8.10;73.10;;;;;;5049422;28;20511;-57
2023/12/18 06:36:48;;;;;;;22.02;12.85;;;8.10;73.10;;;;;;5051824;28;20044;-58
2023/12/18 06:39:15;;;;;;;20.85;12.63;;;8.10;73.20;;;;;;5052183;28;20078;-59
2023/12/18 06:41:44;;;;;;;21.40;13.75;;;8.10;73.30;;;;;;5051705;28;20045;-58
2023/12/18 06:44:11;;;;;;;20.55;13.50;;;8.10;73.40;;;;;;5047068;28;20515;-58
2023/12/18 06:46:37;;;;;;;21.67;13.18;;;8.10;73.40;;;;;;5051767;28;20094;-58
2023/12/18 06:49:04;;;;;;;23.20;13.70;;;8.10;73.50;;;;;;5034128;28;20064;-57
2023/12/18 06:51:35;;;;;;;22.45;13.98;;;8.00;73.50;;;;;;5041848;28;20051;-58
2023/12/18 06:54:09;;;;;;;18.55;13.10;;;8.00;73.60;;;;;;5044144;28;20041;-58
2023/12/18 06:56:37;;;;;;;21.70;13.35;;;8.10;73.80;;;;;;5045029;28;20116;-58
2023/12/18 06:59:04;;;;;;;22.45;13.77;;;8.10;73.70;;;;;;5049431;28;20037;-58
2023/12/18 07:01:30;;;;;;;23.30;13.63;;;8.10;73.80;;;;;;5051954;28;20148;-58
2023/12/18 07:03:59;;;;;;;21.50;13.18;;;8.10;73.80;;;;;;5052307;28;20116;-57
2023/12/18 07:06:27;;;;;;;23.48;15.00;;;8.10;73.90;;;;;;5046120;28;20095;-56
2023/12/18 07:08:54;;;;;;;23.10;13.95;;;8.10;73.90;;;;;;5052141;28;20047;-56
2023/12/18 07:11:23;;;;;;;25.05;14.77;;;8.10;73.80;;;;;;5051497;28;20648;-59
2023/12/18 07:13:53;;;;;;;22.25;15.02;;;8.10;73.80;;;;;;5052188;28;20040;-58
2023/12/18 07:16:23;;;;;;;22.25;13.80;;;8.10;73.90;;;;;;5049044;28;20048;-57
2023/12/18 07:18:49;;;;;;;19.05;14.43;;;8.10;73.90;;;;;;5051577;28;20072;-60
2023/12/18 07:21:17;;;;;;;21.55;13.52;;;8.10;73.90;;;;;;5051596;28;20079;-60
2023/12/18 07:23:43;;;;;;;22.42;13.48;;;8.10;73.90;;;;;;5047290;28;20052;-60
2023/12/18 07:26:12;;;;;;;24.20;13.95;;;8.10;73.70;;;;;;5048287;28;20068;-60
2023/12/18 07:28:45;;;;;;;19.10;13.98;;;8.10;73.70;;;;;;5051979;28;20049;-59
2023/12/18 07:31:12;;;;;;;21.45;14.00;;;8.10;73.70;;;;;;5048975;28;20056;-60
2023/12/18 07:33:45;;;;;;;21.73;14.00;;;8.00;73.70;;;;;;5045923;28;20525;-60
2023/12/18 07:36:13;;;;;;;19.92;13.50;;;8.00;73.90;;;;;;5051374;28;20403;-58
2023/12/18 07:38:44;;;;;;;21.45;13.32;;;8.00;73.90;;;;;;5051269;28;20120;-58
2023/12/18 07:41:13;;;;;;;20.30;13.10;;;8.10;74.20;;;;;;5047257;28;20041;-60
2023/12/18 07:43:40;;;;;;;21.27;13.82;;;8.10;74.20;;;;;;5051815;28;20495;-59
2023/12/18 07:46:20;;;;;;;19.00;13.35;;;8.10;74.20;;;;;;5051099;28;20041;-59
2023/12/18 07:48:48;;;;;;;22.17;14.75;;;8.10;74.20;;;;;;5044091;28;20036;-59
2023/12/18 07:51:16;;;;;;;22.13;14.45;;;8.10;74.20;;;;;;5048213;28;20442;-59
2023/12/18 07:53:46;;;;;;;17.70;14.05;;;8.10;74.30;;;;;;5041079;28;20086;-58
2023/12/18 07:56:13;;;;;;;20.00;14.20;;;8.10;74.30;;;;;;5049236;28;20087;-59
2023/12/18 07:58:40;;;;;;;23.63;15.07;;;8.10;74.20;;;;;;5047792;28;20080;-59
2023/12/18 08:01:08;;;;;;;21.77;13.93;;;8.10;74.10;;;;;;5050628;28;20041;-59
2023/12/18 08:03:35;;;;;;;20.90;13.75;;;8.10;74.10;;;;;;5050925;28;20048;-60
2023/12/18 08:06:02;;;;;;;20.42;13.75;;;8.10;74.20;;;;;;5050808;28;20041;-59
2023/12/18 08:08:31;;;;;;;21.85;13.88;;;8.10;74.20;;;;;;5046713;28;20041;-58
2023/12/18 08:11:03;;;;;;;20.85;13.75;;;8.10;74.20;;;;;;5050959;28;20465;-57
2023/12/18 08:13:30;;;;;;;25.65;15.02;;;8.10;74.80;;;;;;5051089;28;20068;-59
2023/12/18 08:15:56;;;;;;;23.08;13.85;;;8.10;74.20;;;;;;5028174;28;20042;-58
2023/12/18 08:18:23;;;;;;;21.85;14.32;;;8.10;74.30;;;;;;5049863;28;20037;-56
2023/12/18 08:20:51;;;;;;;22.80;14.75;;;8.00;74.20;;;;;;5050808;28;20407;-57
2023/12/18 08:23:21;;;;;;;19.10;13.68;;;8.00;74.30;;;;;;5048449;28;20483;-59
2023/12/18 08:25:47;;;;;;;19.42;12.98;;;8.00;74.40;;;;;;5044295;28;20041;-59
2023/12/18 08:28:14;;;;;;;24.52;14.55;;;8.00;74.50;;;;;;5050091;28;20064;-58
2023/12/18 08:30:43;;;;;;;24.80;14.15;;;8.10;74.60;;;;;;5032764;28;20131;-59
2023/12/18 08:33:17;;;;;;;23.55;13.93;;;8.00;74.60;;;;;;5046343;28;20116;-56
2023/12/18 08:35:45;;;;;;;22.58;13.65;;;8.10;74.60;;;;;;5050405;28;20570;-60
2023/12/18 08:38:14;;;;;;;22.25;14.88;;;8.10;74.70;;;;;;5050268;28;20079;-56
2023/12/18 08:40:43;;;;;;;23.63;14.27;;;8.10;74.60;;;;;;5045430;28;20069;-58
2023/12/18 08:43:10;;;;;;;24.05;14.75;;;8.10;74.60;;;;;;5046553;28;20095;-60
2023/12/18 08:45:36;;;;;;;20.65;13.82;;;8.10;74.60;;;;;;5042477;28;20099;-58
2023/12/18 08:48:06;;;;;;;23.02;15.75;;;8.10;74.60;;;;;;5049472;28;20124;-56
2023/12/18 08:50:33;;;;;;;20.38;13.68;;;8.10;74.70;;;;;;5042503;28;20511;-57
2023/12/18 08:53:00;;;;;;;20.63;13.93;;;8.10;74.50;;;;;;5049075;28;20120;-59
2023/12/18 08:55:32;;;;;;;18.67;13.15;;;8.10;74.50;;;;;;5043733;28;20103;-56
2023/12/18 08:58:00;;;;;;;22.27;15.45;;;8.10;74.60;;;;;;5043062;28;20041;-59
2023/12/18 09:00:28;;;;;;;20.75;14.23;;;8.10;74.60;;;;;;5047923;28;20071;-58
2023/12/18 09:02:55;;;;;;;23.85;14.90;;;8.20;74.60;;;;;;5050356;28;20446;-59
2023/12/18 09:05:21;;;;;;;21.95;14.68;;;8.20;74.50;;;;;;5046374;28;20073;-59
2023/12/18 09:07:49;;;;;;;20.42;14.00;;;8.20;74.60;;;;;;5043314;28;20048;-59
2023/12/18 09:10:17;;;;;;;19.70;14.43;;;8.20;74.70;;;;;;5049862;28;20504;-58
2023/12/18 09:12:44;;;;;;;22.65;15.80;;;8.20;74.70;;;;;;5050356;28;20033;-59
2023/12/18 09:15:14;;;;;;;20.08;13.68;;;8.20;74.60;;;;;;5040817;28;20377;-59
2023/12/18 09:17:42;;;;;;;22.33;14.85;;;8.30;74.60;;;;;;5049898;28;20036;-57
2023/12/18 09:20:09;;;;;;;22.60;14.60;;;8.30;74.70;;;;;;5032784;28;20466;-58
2023/12/18 09:22:36;;;;;;;22.58;15.05;;;8.30;74.80;;;;;;5044605;28;20091;-58
2023/12/18 09:25:04;;;;;;;23.20;15.48;;;8.30;74.70;;;;;;5039901;28;20065;-59
2023/12/18 09:27:33;;;;;;;24.42;15.05;;;8.30;74.60;;;;;;5049559;28;20406;-59
2023/12/18 09:29:59;;;;;;;22.23;14.43;;;8.40;74.60;;;;;;5050305;28;20041;-58
2023/12/18 09:32:26;;;;;;;20.05;14.52;;;8.40;74.50;;;;;;5049476;28;20045;-58
2023/12/18 09:34:53;;;;;;;23.65;15.05;;;8.40;74.40;;;;;;5042055;28;20079;-58
2023/12/18 09:37:20;;;;;;;19.58;13.82;;;8.40;74.40;;;;;;5047564;28;20040;-59
2023/12/18 09:39:49;;;;;;;22.85;14.38;;;8.50;74.40;;;;;;5050035;28;20035;-58
2023/12/18 09:42:16;;;;;;;20.77;14.63;;;8.50;74.30;;;;;;5048129;28;20509;-59
2023/12/18 09:44:47;;;;;;;20.92;14.40;;;8.50;74.30;;;;;;5042583;28;20044;-58
2023/12/18 09:47:13;;;;;;;22.20;14.52;;;8.50;74.30;;;;;;5049569;28;20118;-58
2023/12/18 09:49:43;;;;;;;18.05;13.43;;;8.50;74.30;;;;;;5049722;28;20045;-58
2023/12/18 09:52:22;;;;;;;23.23;13.10;;;8.50;74.30;;;;;;5037030;28;20045;-57
2023/12/18 09:54:54;;;;;;;20.23;13.43;;;8.50;74.30;;;;;;5041769;28;20492;-57
2023/12/18 09:57:23;;;;;;;22.38;13.02;;;8.50;74.30;;;;;;5046203;28;20070;-56
2023/12/18 09:59:50;;;;;;;17.95;12.43;;;8.50;74.30;;;;;;5044933;28;20061;-59
2023/12/18 10:02:17;;;;;;;18.85;12.82;;;8.50;74.30;;;;;;5053149;28;20079;-58
2023/12/18 10:04:44;;;;;;;16.95;11.85;;;8.60;74.50;;;;;;5046519;28;20061;-60
2023/12/18 10:07:11;;;;;;;18.17;12.75;;;8.60;74.50;;;;;;5046052;28;20064;-58
2023/12/18 10:09:48;;;;;;;20.55;12.60;;;8.60;74.50;;;;;;5046626;28;20043;-59
2023/12/18 10:12:17;;;;;;;20.55;13.10;;;8.60;74.50;;;;;;5052933;28;20098;-59
2023/12/18 10:14:44;;;;;;;16.17;10.93;;;8.60;74.50;;;;;;5046204;28;20402;-59
2023/12/18 10:17:12;;;;;;;20.60;12.00;;;8.70;74.40;;;;;;5044633;28;20523;-57
2023/12/18 10:19:44;;;;;;;16.40;11.20;;;8.70;74.30;;;;;;5053123;28;20118;-60
2023/12/18 10:22:10;;;;;;;17.63;11.68;;;8.70;74.20;;;;;;5052749;28;20055;-55
2023/12/18 10:24:41;;;;;;;15.23;10.77;;;8.70;74.00;;;;;;5044568;28;20128;-58
2023/12/18 10:27:08;;;;;;;16.55;11.27;;;8.70;74.10;;;;;;5050690;28;20041;-59
2023/12/18 10:29:36;;;;;;;16.63;11.38;;;8.70;74.20;;;;;;5052970;28;20554;-58
2023/12/18 10:32:03;;;;;;;17.35;12.63;;;8.70;74.40;;;;;;5048790;28;20048;-58
2023/12/18 10:34:36;;;;;;;16.95;10.95;;;8.60;74.40;;;;;;5040199;28;20040;-56
2023/12/18 10:37:03;;;;;;;16.42;11.38;;;8.70;74.50;;;;;;5052114;28;20095;-58
2023/12/18 10:39:35;;;;;;;19.25;11.13;;;8.70;74.50;;;;;;5052612;28;20041;-58
2023/12/18 10:42:08;;;;;;;15.77;10.77;;;8.70;74.40;;;;;;5043310;28;20048;-58
2023/12/18 10:44:39;;;;;;;16.00;11.75;;;8.70;74.40;;;;;;5051254;28;20458;-58
2023/12/18 10:47:08;;;;;;;;;;;8.70;74.40;;;;;;5052841;28;20033;-57
2023/12/18 10:49:41;;;;;;;14.75;10.02;;;8.80;74.70;;;;;;5049358;28;20017;-58
2023/12/18 10:52:13;;;;;;;14.57;9.93;;;8.80;74.30;;;;;;5044393;28;20064;-57
2023/12/18 10:54:45;;;;;;;15.75;10.80;;;8.80;74.30;;;;;;5016231;28;20041;-57
2023/12/18 10:57:15;;;;;;;14.57;9.23;;;8.80;74.40;;;;;;5048406;28;20091;-56
2023/12/18 10:59:45;;;;;;;13.65;10.52;;;8.80;74.30;;;;;;5044772;28;20044;-56
2023/12/18 11:02:13;;;;;;;17.92;11.63;;;8.80;74.40;;;;;;5052119;28;20459;-58
2023/12/18 11:04:48;;;;;;;17.80;11.18;;;8.70;74.40;;;;;;5050080;28;20120;-59
2023/12/18 11:07:19;;;;;;;13.57;9.75;;;8.70;74.50;;;;;;5040201;28;20504;-58
2023/12/18 11:09:47;;;;;;;16.57;11.17;;;8.80;74.80;;;;;;5052151;28;20095;-57
2023/12/18 11:12:19;;;;;;;14.80;9.93;;;8.80;74.80;;;;;;5050968;28;20306;-55
2023/12/18 11:15:11;;;;;;;14.88;10.73;;;8.80;74.80;;;;;;5047757;28;20549;-58
2023/12/18 11:18:09;;;;;;;15.82;11.30;;;8.80;74.80;;;;;;5050765;28;20499;-59
2023/12/18 11:20:41;;;;;;;15.20;11.35;;;8.80;74.70;;;;;;5049729;28;20090;-58
2023/12/18 11:23:11;;;;;;;20.20;12.02;;;8.80;74.60;;;;;;5049992;28;20067;-57
2023/12/18 11:25:47;;;;;;;16.33;10.82;;;8.80;74.50;;;;;;5043047;28;20632;-58
2023/12/18 11:28:24;;;;;;;18.08;11.75;;;8.80;74.50;;;;;;5051820;28;20037;-58
2023/12/18 11:31:03;;;;;;;18.58;12.23;;;8.80;74.60;;;;;;5046182;28;20099;-59
2023/12/18 11:33:30;;;;;;;18.85;13.38;;;8.90;74.90;;;;;;5049316;28;20057;-59
2023/12/18 11:36:13;;;;;;;17.70;12.20;;;8.90;75.00;;;;;;5046306;28;20497;-58
2023/12/18 11:38:41;;;;;;;22.75;13.52;;;8.90;74.90;;;;;;5079081;22;20389;-64
2023/12/18 11:41:45;;;;;;;19.17;13.00;;;8.90;74.80;;;;;;5080348;28;20039;-64
2023/12/18 11:44:14;;;;;;;17.92;12.82;;;9.00;74.90;;;;;;5071703;28;20052;-64
2023/12/18 11:46:44;;;;;;;18.88;13.68;;;8.90;74.70;;;;;;5084335;28;20071;-64
2023/12/18 11:49:12;;;;;;;18.17;12.30;;;8.90;74.40;;;;;;5085123;28;20473;-65
2023/12/18 11:51:44;;;;;;;21.02;12.50;;;8.90;74.40;;;;;;5073366;28;20051;-64
2023/12/18 11:54:16;;;;;;;17.45;11.82;;;8.90;74.40;;;;;;5061456;28;20128;-64
2023/12/18 11:56:43;;;;;;;23.55;13.05;;;8.90;74.50;;;;;;5082991;28;20072;-64
2023/12/18 11:59:15;;;;;;;14.93;10.88;;;8.90;74.50;;;;;;5071000;28;20074;-64
2023/12/18 12:01:42;;;;;;;16.47;11.93;;;9.00;74.50;;;;;;5083462;28;20036;-64
2023/12/18 12:04:13;;;;;;;17.67;13.02;;;9.00;74.50;;;;;;5085456;28;20365;-64
2023/12/18 12:06:42;;;;;;;18.05;12.07;;;8.90;74.30;;;;;;5067655;28;20053;-64
2023/12/18 12:09:09;;;;;;;17.63;11.77;;;8.90;74.20;;;;;;5081941;28;20044;-64
2023/12/18 12:11:39;;;;;;;16.55;11.65;;;8.90;74.20;;;;;;5080163;28;20114;-64
2023/12/18 12:14:08;;;;;;;14.65;10.50;;;8.90;74.30;;;;;;5068750;28;20099;-64
2023/12/18 12:16:35;;;;;;;17.67;12.23;;;8.90;74.30;;;;;;5073891;28;20119;-64
2023/12/18 12:19:05;;;;;;;14.30;10.55;;;8.90;74.40;;;;;;5085000;28;20032;-64
2023/12/18 12:21:39;;;;;;;15.23;10.98;;;8.90;74.50;;;;;;5078890;28;20114;-64
2023/12/18 12:24:15;;;;;;;17.63;11.40;;;8.90;74.60;;;;;;5059830;28;20514;-64
2023/12/18 12:26:42;;;;;;;14.75;10.75;;;8.90;74.70;;;;;;5080934;28;20052;-64
2023/12/18 12:29:11;;;;;;;16.73;11.70;;;9.00;74.70;;;;;;5084520;28;20567;-64
2023/12/18 12:31:39;;;;;;;15.80;11.55;;;9.00;74.60;;;;;;5078750;28;20048;-64
2023/12/18 12:34:11;;;;;;;14.35;10.25;;;9.00;74.40;;;;;;5069953;28;20067;-64
2023/12/18 12:36:38;;;;;;;14.85;10.57;;;9.00;74.40;;;;;;5079631;28;20575;-64
2023/12/18 12:39:05;;;;;;;17.70;11.02;;;9.00;74.30;;;;;;5082794;28;20436;-64
2023/12/18 12:41:32;;;;;;;14.63;10.40;;;9.10;74.20;;;;;;5071693;28;20123;-64
2023/12/18 12:44:01;;;;;;;15.02;10.65;;;9.00;74.00;;;;;;5074464;28;20044;-64
2023/12/18 12:46:32;;;;;;;13.35;10.63;;;9.00;74.00;;;;;;5079486;28;20421;-64
2023/12/18 12:49:08;;;;;;;11.80;8.75;;;9.00;74.00;;;;;;5074625;28;20036;-64
2023/12/18 12:51:37;;;;;;;12.93;9.77;;;9.00;74.10;;;;;;5064989;28;20562;-64
2023/12/18 12:54:08;;;;;;;15.00;9.90;;;9.00;74.10;;;;;;5059090;28;20041;-64